Time;durP1;ratioP1;P1;durP2;ratioP2;P2;SDS_P1;SDS_P2;PMS_P1;PMS_P2;Temp;Humidity;BMP_temperature;BMP_pressure;BME280_temperature;BME280_humidity;BME280_pressure;Samples;Min_cycle;Max_cycle;Signal;HPM_P1;HPM_P2
2024/01/31 00:01:37;;;;;;;8.88;2.88;;;9.70;78.10;;;;;;5093604;28;20012;-70
2024/01/31 00:04:04;;;;;;;9.95;2.50;;;9.70;78.80;;;;;;5093593;28;20060;-71
2024/01/31 00:06:30;;;;;;;9.35;3.03;;;9.60;78.00;;;;;;5090203;28;20048;-71
2024/01/31 00:08:57;;;;;;;9.02;2.78;;;9.60;77.90;;;;;;5093494;28;20103;-71
2024/01/31 00:11:25;;;;;;;12.02;3.17;;;9.60;77.90;;;;;;5093784;28;20046;-71
2024/01/31 00:13:51;;;;;;;9.00;2.67;;;9.70;77.90;;;;;;5093481;28;20028;-71
2024/01/31 00:16:17;;;;;;;7.15;2.35;;;9.70;77.90;;;;;;5093770;28;20432;-70
2024/01/31 00:18:43;;;;;;;7.35;3.13;;;9.60;77.80;;;;;;5093603;28;20027;-71
2024/01/31 00:21:09;;;;;;;7.43;2.90;;;9.70;77.90;;;;;;5093667;28;20080;-70
2024/01/31 00:23:34;;;;;;;11.02;3.30;;;9.70;77.80;;;;;;5093504;28;20036;-71
2024/01/31 00:26:00;;;;;;;10.38;2.53;;;9.60;77.70;;;;;;5092751;28;20028;-70
2024/01/31 00:28:27;;;;;;;8.40;2.22;;;9.60;77.70;;;;;;5094168;28;20020;-71
2024/01/31 00:30:52;;;;;;;6.60;2.22;;;9.60;77.70;;;;;;5092850;28;20024;-70
2024/01/31 00:33:18;;;;;;;6.72;2.78;;;9.60;77.70;;;;;;5093140;28;20128;-70
2024/01/31 00:35:44;;;;;;;8.38;2.45;;;9.60;77.70;;;;;;5075258;28;20063;-71
2024/01/31 00:38:10;;;;;;;7.68;2.05;;;9.60;77.60;;;;;;5093370;28;20032;-71
2024/01/31 00:40:35;;;;;;;8.63;2.30;;;9.60;77.60;;;;;;5092923;28;20020;-70
2024/01/31 00:43:01;;;;;;;11.07;2.70;;;9.60;77.60;;;;;;5091888;28;20054;-70
2024/01/31 00:45:28;;;;;;;6.60;2.30;;;9.60;77.60;;;;;;5092326;28;20028;-71
2024/01/31 00:47:54;;;;;;;7.22;2.30;;;9.60;77.60;;;;;;5093753;28;20028;-70
2024/01/31 00:50:19;;;;;;;6.93;2.22;;;9.50;77.50;;;;;;5097631;28;20115;-70
2024/01/31 00:52:45;;;;;;;9.02;2.50;;;9.60;77.60;;;;;;5096817;28;20387;-70
2024/01/31 00:55:11;;;;;;;7.88;1.95;;;9.60;77.50;;;;;;5097300;28;20419;-70
2024/01/31 00:57:37;;;;;;;7.20;2.30;;;9.60;77.40;;;;;;5095648;28;20139;-70
2024/01/31 01:00:05;;;;;;;7.63;2.40;;;9.60;77.30;;;;;;5098189;28;20039;-70
2024/01/31 01:02:31;;;;;;;6.65;2.03;;;9.60;77.30;;;;;;5094281;28;20032;-70
2024/01/31 01:04:57;;;;;;;6.28;2.38;;;9.60;77.40;;;;;;5097118;28;20016;-70
2024/01/31 01:07:22;;;;;;;5.53;2.00;;;9.50;77.30;;;;;;5097149;28;20363;-70
2024/01/31 01:09:48;;;;;;;5.53;2.35;;;9.50;77.40;;;;;;5095427;28;20028;-70
2024/01/31 01:12:14;;;;;;;11.07;2.28;;;9.60;77.40;;;;;;5096601;28;20023;-70
2024/01/31 01:14:40;;;;;;;6.63;1.90;;;9.50;77.30;;;;;;5099529;28;20485;-70
2024/01/31 01:17:05;;;;;;;7.47;2.45;;;9.50;77.20;;;;;;5097187;28;20417;-71
2024/01/31 01:19:31;;;;;;;5.28;1.95;;;9.60;77.30;;;;;;5096160;28;20182;-70
2024/01/31 01:21:57;;;;;;;7.15;1.92;;;9.50;77.20;;;;;;5087247;28;20032;-70
2024/01/31 01:24:23;;;;;;;5.07;1.77;;;9.50;77.20;;;;;;5078053;28;20023;-70
2024/01/31 01:26:49;;;;;;;8.70;1.73;;;9.50;77.20;;;;;;5096318;28;20036;-70
2024/01/31 01:29:15;;;;;;;7.60;1.83;;;9.50;77.10;;;;;;5096421;28;20035;-70
2024/01/31 01:31:41;;;;;;;4.78;1.73;;;9.50;77.70;;;;;;5096066;28;20028;-70
2024/01/31 01:34:07;;;;;;;6.85;1.80;;;9.50;77.00;;;;;;5096250;28;20024;-70
2024/01/31 01:36:32;;;;;;;5.55;2.00;;;9.50;76.90;;;;;;5096447;28;20061;-70
2024/01/31 01:38:58;;;;;;;8.15;2.28;;;9.50;76.90;;;;;;5096227;28;20425;-70
2024/01/31 01:41:24;;;;;;;5.25;1.40;;;9.40;76.90;;;;;;5095799;28;20020;-70
2024/01/31 01:43:50;;;;;;;6.90;1.88;;;9.40;76.90;;;;;;5095200;28;20032;-70
2024/01/31 01:46:20;;;;;;;5.60;1.83;;;9.50;76.90;;;;;;5096191;28;20103;-70
2024/01/31 01:48:47;;;;;;;6.50;1.98;;;9.50;76.80;;;;;;5095079;28;20032;-70
2024/01/31 01:51:17;;;;;;;5.05;1.85;;;9.40;76.80;;;;;;5106366;27;20035;-71
2024/01/31 01:53:45;;;;;;;5.93;2.40;;;9.50;76.80;;;;;;5109749;27;20093;-70
2024/01/31 01:56:13;;;;;;;3.90;1.40;;;9.40;76.80;;;;;;5088554;28;20100;-71
2024/01/31 01:58:41;;;;;;;3.17;1.30;;;9.50;76.90;;;;;;5094996;28;20027;-70
2024/01/31 02:01:07;;;;;;;7.15;1.67;;;9.50;76.90;;;;;;5092524;28;20032;-71
2024/01/31 02:03:34;;;;;;;6.30;1.90;;;9.40;76.80;;;;;;5094364;28;20028;-70
2024/01/31 02:06:01;;;;;;;6.47;1.90;;;9.40;76.80;;;;;;5095789;28;20024;-70
2024/01/31 02:08:27;;;;;;;4.82;1.92;;;9.40;76.70;;;;;;5095849;28;20115;-70
2024/01/31 02:10:53;;;;;;;4.32;1.42;;;9.40;76.80;;;;;;5095457;28;20509;-70
2024/01/31 02:13:19;;;;;;;5.72;1.80;;;9.40;76.90;;;;;;5094409;28;20437;-70
2024/01/31 02:15:55;;;;;;;8.27;2.10;;;9.40;76.90;;;;;;5094791;28;20043;-70
2024/01/31 02:18:26;;;;;;;7.72;2.03;;;9.40;76.90;;;;;;5094255;28;20038;-70
2024/01/31 02:20:52;;;;;;;6.28;2.08;;;9.40;76.90;;;;;;5105885;28;20047;-70
2024/01/31 02:23:18;;;;;;;7.97;1.85;;;9.40;76.80;;;;;;5093616;28;20245;-70
2024/01/31 02:25:45;;;;;;;4.63;1.70;;;9.40;77.40;;;;;;5094758;28;20028;-70
2024/01/31 02:28:11;;;;;;;5.88;2.15;;;9.40;76.80;;;;;;5095131;28;20089;-70
2024/01/31 02:30:36;;;;;;;5.82;1.90;;;9.40;76.90;;;;;;5094334;28;20036;-70
2024/01/31 02:33:02;;;;;;;5.07;2.00;;;9.40;77.00;;;;;;5094998;28;20042;-70
2024/01/31 02:35:32;;;;;;;7.10;1.88;;;9.40;77.00;;;;;;5094856;28;20115;-70
2024/01/31 02:37:57;;;;;;;7.10;2.15;;;9.40;77.00;;;;;;5094491;28;20433;-70
2024/01/31 02:40:23;;;;;;;7.93;1.83;;;9.40;77.10;;;;;;5094023;28;20025;-70
2024/01/31 02:42:49;;;;;;;7.00;2.20;;;9.40;77.10;;;;;;5094213;28;20062;-70
2024/01/31 02:45:15;;;;;;;6.03;2.13;;;9.30;77.10;;;;;;5096287;28;20042;-70
2024/01/31 02:47:41;;;;;;;6.95;2.22;;;9.30;77.20;;;;;;5095063;28;20035;-70
2024/01/31 02:50:07;;;;;;;4.68;1.60;;;9.40;77.30;;;;;;5094990;28;20020;-70
2024/01/31 02:52:33;;;;;;;7.47;2.03;;;9.30;77.30;;;;;;5094520;28;20043;-71
2024/01/31 02:54:58;;;;;;;6.82;2.47;;;9.30;77.40;;;;;;5094540;28;20111;-70
2024/01/31 02:57:25;;;;;;;5.97;1.90;;;9.30;77.50;;;;;;5094837;28;20463;-70
2024/01/31 02:59:51;;;;;;;6.25;1.95;;;9.30;77.50;;;;;;5094739;28;20059;-71
2024/01/31 03:02:17;;;;;;;7.07;2.10;;;9.30;77.60;;;;;;5093575;28;20105;-70
2024/01/31 03:04:43;;;;;;;7.82;1.90;;;9.30;77.50;;;;;;5109417;28;20161;-70
2024/01/31 03:07:13;;;;;;;7.13;2.00;;;9.30;77.60;;;;;;5096113;28;20329;-70
2024/01/31 03:09:39;;;;;;;5.72;2.22;;;9.20;77.50;;;;;;5093282;28;20024;-70
2024/01/31 03:12:05;;;;;;;4.07;1.73;;;9.20;77.50;;;;;;5094355;28;20105;-70
2024/01/31 03:14:32;;;;;;;5.43;2.00;;;9.20;78.20;;;;;;5094230;28;20031;-70
2024/01/31 03:16:58;;;;;;;5.75;1.85;;;9.20;77.60;;;;;;5094139;28;20012;-70
2024/01/31 03:19:25;;;;;;;5.15;2.25;;;9.20;77.70;;;;;;5092454;28;20024;-70
2024/01/31 03:21:50;;;;;;;5.28;1.90;;;9.30;77.70;;;;;;5092455;28;20031;-71
2024/01/31 03:24:16;;;;;;;8.80;2.03;;;9.30;77.60;;;;;;5093213;28;20115;-70
2024/01/31 03:26:42;;;;;;;6.85;2.17;;;9.30;77.50;;;;;;5093619;28;20036;-70
2024/01/31 03:29:08;;;;;;;6.72;2.22;;;9.30;77.50;;;;;;5092978;28;20038;-70
2024/01/31 03:31:33;;;;;;;7.15;2.45;;;9.20;77.40;;;;;;5094207;28;20024;-70
2024/01/31 03:33:59;;;;;;;6.47;2.08;;;9.20;77.50;;;;;;5092762;28;20538;-70
2024/01/31 03:36:26;;;;;;;5.10;1.70;;;9.20;77.50;;;;;;5092976;28;20107;-70
2024/01/31 03:38:54;;;;;;;5.05;1.70;;;9.20;77.50;;;;;;5092638;28;20119;-70
2024/01/31 03:41:20;;;;;;;6.28;2.25;;;9.20;77.50;;;;;;5091505;28;20028;-70
2024/01/31 03:43:45;;;;;;;7.00;1.77;;;9.20;77.50;;;;;;5093864;28;20093;-70
2024/01/31 03:46:12;;;;;;;6.82;2.03;;;9.20;77.40;;;;;;5092772;28;20043;-70
2024/01/31 03:48:37;;;;;;;7.50;1.90;;;9.20;77.40;;;;;;5094791;28;20066;-70
2024/01/31 03:51:04;;;;;;;4.47;1.60;;;9.20;77.40;;;;;;5093774;28;20024;-70
2024/01/31 03:53:29;;;;;;;5.72;2.00;;;9.20;77.50;;;;;;5092279;28;20040;-70
2024/01/31 03:55:55;;;;;;;7.22;1.83;;;9.20;77.50;;;;;;5093492;28;20024;-70
2024/01/31 03:58:21;;;;;;;7.35;2.35;;;9.20;77.50;;;;;;5094898;28;20039;-70
2024/01/31 04:00:47;;;;;;;7.22;2.30;;;9.20;77.50;;;;;;5093259;28;20482;-70
2024/01/31 04:03:13;;;;;;;7.68;2.45;;;9.20;77.50;;;;;;5093617;28;20123;-70
2024/01/31 04:05:38;;;;;;;7.55;2.15;;;9.20;77.60;;;;;;5093922;28;20042;-70
2024/01/31 04:08:04;;;;;;;4.72;2.13;;;9.20;77.50;;;;;;5093451;28;20028;-70
2024/01/31 04:10:30;;;;;;;8.63;2.10;;;9.20;77.50;;;;;;5091697;28;20034;-70
2024/01/31 04:12:56;;;;;;;5.30;2.03;;;9.20;77.50;;;;;;5091740;28;20114;-70
2024/01/31 04:15:21;;;;;;;5.28;1.92;;;9.20;77.50;;;;;;5092132;28;20448;-70
2024/01/31 04:17:47;;;;;;;8.23;2.22;;;9.10;77.50;;;;;;5093047;28;20448;-70
2024/01/31 04:20:14;;;;;;;6.18;1.90;;;9.10;77.50;;;;;;5093052;28;20040;-70
2024/01/31 04:22:40;;;;;;;5.55;2.10;;;9.10;77.60;;;;;;5091895;28;20052;-70
2024/01/31 04:25:06;;;;;;;5.32;1.88;;;9.20;77.60;;;;;;5097416;28;20459;-70
2024/01/31 04:27:31;;;;;;;5.72;2.10;;;9.20;77.50;;;;;;5097256;28;20028;-70
2024/01/31 04:29:58;;;;;;;5.05;1.92;;;9.10;77.50;;;;;;5097132;28;20043;-70
2024/01/31 04:32:24;;;;;;;5.60;1.90;;;9.20;77.60;;;;;;5097529;28;20028;-70
2024/01/31 04:34:51;;;;;;;7.30;2.28;;;9.20;77.60;;;;;;5095894;28;20032;-70
2024/01/31 04:37:16;;;;;;;6.03;2.20;;;9.10;77.60;;;;;;5095187;28;20394;-70
2024/01/31 04:39:43;;;;;;;7.75;2.10;;;9.10;77.60;;;;;;5096102;28;20107;-70
2024/01/31 04:42:09;;;;;;;8.02;2.35;;;9.10;77.60;;;;;;5096207;28;20020;-70
2024/01/31 04:44:35;;;;;;;6.13;2.00;;;9.10;77.60;;;;;;5095726;28;20111;-70
2024/01/31 04:47:01;;;;;;;5.70;2.10;;;9.10;77.60;;;;;;5095405;28;20024;-70
2024/01/31 04:49:27;;;;;;;5.70;2.17;;;9.10;77.60;;;;;;5097128;28;20373;-70
2024/01/31 04:51:53;;;;;;;7.43;2.25;;;9.10;77.60;;;;;;5097190;28;20028;-70
2024/01/31 04:54:19;;;;;;;4.95;1.70;;;9.10;77.60;;;;;;5095262;28;20075;-70
2024/01/31 04:56:45;;;;;;;6.13;1.90;;;9.10;77.60;;;;;;5096736;28;20016;-70
2024/01/31 04:59:10;;;;;;;7.78;1.92;;;9.10;77.60;;;;;;5095921;28;20445;-70
2024/01/31 05:01:37;;;;;;;8.50;1.80;;;9.10;77.60;;;;;;5096597;28;20107;-70
2024/01/31 05:04:03;;;;;;;7.43;2.25;;;9.10;77.60;;;;;;5077223;28;20349;-70
2024/01/31 05:06:29;;;;;;;4.93;1.55;;;9.10;77.60;;;;;;5095914;28;20283;-70
2024/01/31 05:08:55;;;;;;;6.65;2.22;;;9.10;77.60;;;;;;5093537;28;20036;-70
2024/01/31 05:11:20;;;;;;;6.88;1.85;;;9.10;77.60;;;;;;5105092;27;20025;-70
2024/01/31 05:13:46;;;;;;;5.95;1.77;;;9.10;78.20;;;;;;5092243;28;20040;-70
2024/01/31 05:16:12;;;;;;;8.30;2.08;;;9.10;77.60;;;;;;5096630;28;20024;-70
2024/01/31 05:18:39;;;;;;;7.10;1.90;;;9.10;77.60;;;;;;5096084;28;20020;-70
2024/01/31 05:21:08;;;;;;;6.28;1.70;;;9.10;77.60;;;;;;5099084;28;20051;-70
2024/01/31 05:23:34;;;;;;;5.10;1.80;;;9.10;77.60;;;;;;5105066;28;20032;-70
2024/01/31 05:25:59;;;;;;;5.95;2.03;;;9.10;77.60;;;;;;5096478;28;20088;-71
2024/01/31 05:28:25;;;;;;;4.72;1.70;;;9.10;77.70;;;;;;5084461;28;20444;-70
2024/01/31 05:30:51;;;;;;;5.80;1.77;;;9.10;77.70;;;;;;5090086;28;20427;-70
2024/01/31 05:33:17;;;;;;;7.90;2.05;;;9.10;77.70;;;;;;5093165;28;20120;-70
2024/01/31 05:35:43;;;;;;;5.13;1.65;;;9.10;77.70;;;;;;5083524;28;20044;-70
2024/01/31 05:38:08;;;;;;;6.28;2.10;;;9.10;77.70;;;;;;5089874;28;20478;-70
2024/01/31 05:40:37;;;;;;;6.05;1.85;;;9.10;77.70;;;;;;5081791;28;20021;-70
2024/01/31 05:43:03;;;;;;;5.35;1.90;;;9.10;77.80;;;;;;5086977;28;20028;-70
2024/01/31 05:45:28;;;;;;;4.72;1.70;;;9.10;77.70;;;;;;5085723;28;20038;-70
2024/01/31 05:47:54;;;;;;;6.55;1.80;;;9.10;77.70;;;;;;5087862;28;20035;-70
2024/01/31 05:50:20;;;;;;;6.85;1.90;;;9.10;77.60;;;;;;5080483;28;20123;-70
2024/01/31 05:52:45;;;;;;;6.65;1.90;;;9.10;77.60;;;;;;5081028;28;20040;-71
2024/01/31 05:55:15;;;;;;;5.32;1.90;;;9.10;77.60;;;;;;5078299;28;20102;-70
2024/01/31 05:57:41;;;;;;;4.82;1.83;;;9.10;77.60;;;;;;5080504;28;20079;-70
2024/01/31 06:00:09;;;;;;;5.25;1.70;;;9.10;77.60;;;;;;5082631;28;20051;-70
2024/01/31 06:02:37;;;;;;;7.40;2.13;;;9.10;77.70;;;;;;5082597;28;20032;-70
2024/01/31 06:05:03;;;;;;;6.32;1.90;;;9.10;77.60;;;;;;5079709;28;20032;-70
2024/01/31 06:07:29;;;;;;;4.22;1.77;;;9.10;77.50;;;;;;5090695;28;20028;-70
2024/01/31 06:09:54;;;;;;;8.60;2.50;;;9.10;77.60;;;;;;5095079;28;20440;-70
2024/01/31 06:12:20;;;;;;;6.78;2.13;;;9.10;77.50;;;;;;5076613;28;20028;-70
2024/01/31 06:14:46;;;;;;;4.72;1.90;;;9.10;77.50;;;;;;5094311;28;20095;-70
2024/01/31 06:17:14;;;;;;;6.25;2.03;;;9.10;77.40;;;;;;5093581;28;20483;-70
2024/01/31 06:19:40;;;;;;;7.10;2.00;;;9.10;77.40;;;;;;5094858;28;20024;-70
2024/01/31 06:22:07;;;;;;;7.43;1.92;;;9.10;77.20;;;;;;5094372;28;20085;-70
2024/01/31 06:24:32;;;;;;;4.57;1.80;;;9.10;77.20;;;;;;5094975;28;20024;-70
2024/01/31 06:26:58;;;;;;;6.90;1.90;;;9.10;77.20;;;;;;5097173;28;20514;-70
2024/01/31 06:29:24;;;;;;;6.28;1.65;;;9.10;77.10;;;;;;5091070;28;20111;-70
2024/01/31 06:31:52;;;;;;;6.63;1.98;;;9.10;76.90;;;;;;5094512;28;20105;-70
2024/01/31 06:34:18;;;;;;;6.80;2.00;;;9.10;76.80;;;;;;5094622;28;20445;-70
2024/01/31 06:36:44;;;;;;;5.00;1.80;;;9.10;76.80;;;;;;5092508;28;20034;-70
2024/01/31 06:39:10;;;;;;;4.45;1.77;;;9.10;76.70;;;;;;5093860;28;20028;-70
2024/01/31 06:41:37;;;;;;;4.85;1.67;;;9.10;76.60;;;;;;5095124;28;20031;-70
2024/01/31 06:44:03;;;;;;;5.72;1.75;;;9.10;76.40;;;;;;5094801;28;20074;-70
2024/01/31 06:46:30;;;;;;;6.97;1.88;;;9.10;76.90;;;;;;5093691;28;20345;-70
2024/01/31 06:48:55;;;;;;;5.45;2.08;;;9.10;76.10;;;;;;5094621;28;20051;-70
2024/01/31 06:51:22;;;;;;;6.97;2.00;;;9.10;76.00;;;;;;5094095;28;20121;-70
2024/01/31 06:53:48;;;;;;;6.70;2.00;;;9.10;76.00;;;;;;5076151;28;20044;-70
2024/01/31 06:56:17;;;;;;;7.05;2.05;;;9.10;75.90;;;;;;5094169;28;20020;-70
2024/01/31 06:58:45;;;;;;;6.82;2.55;;;9.10;75.80;;;;;;5093251;28;20017;-70
2024/01/31 07:01:14;;;;;;;6.35;2.60;;;9.10;75.60;;;;;;5093869;28;20064;-69
2024/01/31 07:03:39;;;;;;;5.75;2.28;;;9.20;75.60;;;;;;5094664;28;20028;-70
2024/01/31 07:06:05;;;;;;;6.35;2.42;;;9.10;75.60;;;;;;5094732;28;20391;-70
2024/01/31 07:08:31;;;;;;;6.40;2.45;;;9.10;75.40;;;;;;5093558;28;20055;-70
2024/01/31 07:10:57;;;;;;;5.82;2.25;;;9.10;75.30;;;;;;5095227;28;20107;-71
2024/01/31 07:13:22;;;;;;;5.40;2.47;;;9.20;75.30;;;;;;5092898;28;20035;-70
2024/01/31 07:15:48;;;;;;;8.68;2.85;;;9.10;75.20;;;;;;5093118;28;20055;-70
2024/01/31 07:18:14;;;;;;;7.13;2.60;;;9.20;75.20;;;;;;5093024;28;20042;-70
2024/01/31 07:20:40;;;;;;;8.10;3.28;;;9.20;75.10;;;;;;5093638;28;20030;-68
2024/01/31 07:23:05;;;;;;;6.75;2.88;;;9.20;75.10;;;;;;5092033;28;20437;-72
2024/01/31 07:25:31;;;;;;;5.57;2.45;;;9.10;75.10;;;;;;5094440;28;20028;-72
2024/01/31 07:27:57;;;;;;;7.18;2.90;;;9.20;75.10;;;;;;5101360;28;20460;-72
2024/01/31 07:30:23;;;;;;;7.03;2.90;;;9.20;75.10;;;;;;5091526;28;20122;-72
2024/01/31 07:32:48;;;;;;;6.60;2.83;;;9.20;75.10;;;;;;5094278;28;20065;-72
2024/01/31 07:35:14;;;;;;;7.18;2.97;;;9.20;75.10;;;;;;5094468;28;20032;-72
2024/01/31 07:37:40;;;;;;;6.82;3.00;;;9.20;75.10;;;;;;5094419;28;20024;-72
2024/01/31 07:40:06;;;;;;;6.30;3.20;;;9.20;75.10;;;;;;5094156;28;20067;-72
2024/01/31 07:42:33;;;;;;;7.30;2.92;;;9.20;75.70;;;;;;5093932;28;20078;-72
2024/01/31 07:44:58;;;;;;;9.15;2.85;;;9.20;75.10;;;;;;5094519;28;20277;-72
2024/01/31 07:47:24;;;;;;;8.48;3.53;;;9.20;75.10;;;;;;5093693;28;20111;-73
2024/01/31 07:49:50;;;;;;;8.73;3.38;;;9.20;75.10;;;;;;5098609;28;20080;-72
2024/01/31 07:52:16;;;;;;;9.70;3.78;;;9.20;75.20;;;;;;5093141;28;20513;-72
2024/01/31 07:54:42;;;;;;;9.05;3.35;;;9.20;75.30;;;;;;5092338;28;20070;-72
2024/01/31 07:57:08;;;;;;;9.77;3.95;;;9.20;75.40;;;;;;5092761;28;20060;-72
2024/01/31 07:59:35;;;;;;;8.15;3.50;;;9.20;75.40;;;;;;5093444;28;20028;-72
2024/01/31 08:02:01;;;;;;;7.72;2.90;;;9.20;75.40;;;;;;5094296;28;20038;-72
2024/01/31 08:04:27;;;;;;;6.47;2.80;;;9.20;75.40;;;;;;5075929;28;20337;-72
2024/01/31 08:06:53;;;;;;;6.30;2.90;;;9.20;75.30;;;;;;5092867;28;20072;-72
2024/01/31 08:09:19;;;;;;;7.78;3.17;;;9.20;75.30;;;;;;5092372;28;20500;-72
2024/01/31 08:11:44;;;;;;;9.15;3.65;;;9.20;75.30;;;;;;5092890;28;20372;-72
2024/01/31 08:14:11;;;;;;;6.13;3.30;;;9.20;75.20;;;;;;5092030;28;20028;-73
2024/01/31 08:16:37;;;;;;;7.43;3.35;;;9.20;75.20;;;;;;5093420;28;20101;-72
2024/01/31 08:19:04;;;;;;;9.00;3.88;;;9.20;75.30;;;;;;5092086;28;20024;-71
2024/01/31 08:21:33;;;;;;;7.90;3.80;;;9.20;75.30;;;;;;5091663;28;20166;-71
2024/01/31 08:23:59;;;;;;;13.60;3.85;;;9.20;75.40;;;;;;5093106;28;20040;-72
2024/01/31 08:26:25;;;;;;;9.48;3.55;;;9.20;75.40;;;;;;5092412;28;20407;-72
2024/01/31 08:28:50;;;;;;;8.15;3.22;;;9.20;75.40;;;;;;5091310;28;20131;-72
2024/01/31 08:31:16;;;;;;;6.95;3.30;;;9.20;76.10;;;;;;5093260;28;20032;-72
2024/01/31 08:33:44;;;;;;;7.50;3.47;;;9.20;75.50;;;;;;5091125;28;20028;-71
2024/01/31 08:36:09;;;;;;;7.45;3.40;;;9.20;75.60;;;;;;5092575;28;20345;-72
2024/01/31 08:38:37;;;;;;;7.45;2.95;;;9.20;75.60;;;;;;5092423;28;20078;-72
2024/01/31 08:41:05;;;;;;;7.32;3.28;;;9.20;75.60;;;;;;5091649;28;20405;-72
2024/01/31 08:43:30;;;;;;;7.70;3.95;;;9.30;75.70;;;;;;5101133;28;20077;-72
2024/01/31 08:45:56;;;;;;;8.35;3.83;;;9.20;75.60;;;;;;5092638;28;20027;-72
2024/01/31 08:48:22;;;;;;;6.97;3.50;;;9.20;75.60;;;;;;5093696;28;20084;-73
2024/01/31 08:50:48;;;;;;;6.68;3.33;;;9.20;76.30;;;;;;5091935;28;20441;-73
2024/01/31 08:53:14;;;;;;;7.53;3.83;;;9.30;75.70;;;;;;5090994;28;20043;-73
2024/01/31 08:55:39;;;;;;;8.27;3.50;;;9.30;75.70;;;;;;5092436;28;20036;-73
2024/01/31 08:58:05;;;;;;;7.75;3.70;;;9.30;76.40;;;;;;5091863;28;20114;-73
2024/01/31 09:00:31;;;;;;;8.82;4.75;;;9.30;75.70;;;;;;5087178;28;20035;-72
2024/01/31 09:02:57;;;;;;;8.20;4.07;;;9.30;75.70;;;;;;5091815;28;20032;-72
2024/01/31 09:05:22;;;;;;;8.48;4.43;;;9.30;75.60;;;;;;5092277;28;20107;-71
2024/01/31 09:07:48;;;;;;;7.45;3.95;;;9.30;75.60;;;;;;5093542;28;20325;-71
2024/01/31 09:10:14;;;;;;;8.57;4.50;;;9.30;75.50;;;;;;5096228;28;20085;-71
2024/01/31 09:12:40;;;;;;;8.52;4.15;;;9.40;75.60;;;;;;5097744;28;20379;-71
2024/01/31 09:15:06;;;;;;;11.75;4.47;;;9.40;75.50;;;;;;5096993;28;20024;-72
2024/01/31 09:17:32;;;;;;;10.52;4.32;;;9.40;75.40;;;;;;5095972;28;20043;-71
2024/01/31 09:19:57;;;;;;;8.80;4.35;;;9.40;75.30;;;;;;5097428;28;20020;-71
2024/01/31 09:22:24;;;;;;;9.25;4.30;;;9.40;75.30;;;;;;5097930;28;20535;-72
2024/01/31 09:24:50;;;;;;;9.70;4.65;;;9.40;75.30;;;;;;5097536;28;20056;-71
2024/01/31 09:27:19;;;;;;;10.50;4.53;;;9.40;75.10;;;;;;5096174;28;20023;-71
2024/01/31 09:29:46;;;;;;;9.15;4.45;;;9.50;75.10;;;;;;5083550;28;20475;-71
2024/01/31 09:32:14;;;;;;;13.65;5.00;;;9.50;75.00;;;;;;5099372;28;20391;-71
2024/01/31 09:34:41;;;;;;;9.27;3.78;;;9.50;75.00;;;;;;5097557;28;20032;-71
2024/01/31 09:37:07;;;;;;;10.65;5.03;;;9.50;74.90;;;;;;5096625;28;20024;-72
2024/01/31 09:39:32;;;;;;;10.05;4.90;;;9.50;74.80;;;;;;5097079;28;20361;-71
2024/01/31 09:41:58;;;;;;;9.13;4.75;;;9.50;74.70;;;;;;5097464;28;20456;-72
2024/01/31 09:44:25;;;;;;;10.43;5.05;;;9.60;74.70;;;;;;5096941;28;20032;-72
2024/01/31 09:46:53;;;;;;;8.63;4.43;;;9.60;74.60;;;;;;5095714;28;20027;-72
2024/01/31 09:49:19;;;;;;;8.90;4.95;;;9.60;74.50;;;;;;5096078;28;20032;-72
2024/01/31 09:51:45;;;;;;;10.48;4.70;;;9.70;74.40;;;;;;5096924;28;20051;-72
2024/01/31 09:54:11;;;;;;;10.07;4.80;;;9.70;74.30;;;;;;5096168;28;20060;-71
2024/01/31 09:56:37;;;;;;;9.20;5.07;;;9.80;74.20;;;;;;5095560;28;20051;-71
2024/01/31 09:59:03;;;;;;;8.82;4.78;;;9.80;74.20;;;;;;5095726;28;20103;-71
2024/01/31 10:01:29;;;;;;;10.52;5.05;;;9.80;74.10;;;;;;5097336;28;20024;-71
2024/01/31 10:03:57;;;;;;;10.35;5.10;;;9.80;74.00;;;;;;5095603;28;20032;-72
2024/01/31 10:06:29;;;;;;;11.35;4.88;;;9.90;73.90;;;;;;5095592;28;20035;-71
2024/01/31 10:08:57;;;;;;;10.32;4.82;;;9.90;73.90;;;;;;5096319;28;20024;-71
2024/01/31 10:11:25;;;;;;;10.68;5.53;;;9.90;73.80;;;;;;5096737;28;20441;-71
2024/01/31 10:13:50;;;;;;;146.98;20.23;;;9.90;73.80;;;;;;5096617;28;20028;-71
2024/01/31 10:16:16;;;;;;;25.60;7.88;;;10.00;73.80;;;;;;5095973;28;20030;-71
2024/01/31 10:18:42;;;;;;;15.05;6.90;;;10.00;73.70;;;;;;5096301;28;20082;-72
2024/01/31 10:21:10;;;;;;;12.00;6.05;;;10.00;73.70;;;;;;5094483;28;20437;-71
2024/01/31 10:23:35;;;;;;;12.93;5.78;;;10.00;73.70;;;;;;5095909;28;20024;-71
2024/01/31 10:26:01;;;;;;;13.48;7.25;;;10.00;73.80;;;;;;5095954;28;20024;-71
2024/01/31 10:28:28;;;;;;;12.90;6.82;;;10.00;73.80;;;;;;5091822;28;20472;-71
2024/01/31 10:30:55;;;;;;;13.23;6.93;;;10.00;73.80;;;;;;5087492;28;20123;-71
2024/01/31 10:33:22;;;;;;;14.02;7.38;;;10.00;73.90;;;;;;5095043;28;20084;-71
2024/01/31 10:35:48;;;;;;;13.00;7.53;;;10.00;74.00;;;;;;5096266;28;20024;-71
2024/01/31 10:38:14;;;;;;;16.02;8.27;;;10.00;74.10;;;;;;5078014;28;20080;-72
2024/01/31 10:40:41;;;;;;;13.93;7.43;;;10.00;74.20;;;;;;5095143;28;20356;-72
2024/01/31 10:43:10;;;;;;;14.90;8.02;;;10.00;74.30;;;;;;5095212;28;20066;-72
2024/01/31 10:45:37;;;;;;;13.85;8.60;;;10.00;74.40;;;;;;5077284;28;20059;-71
2024/01/31 10:48:03;;;;;;;15.30;8.77;;;10.00;74.40;;;;;;5094645;28;20402;-70
2024/01/31 10:50:30;;;;;;;16.25;9.13;;;10.00;74.60;;;;;;5095289;28;20040;-71
2024/01/31 10:52:57;;;;;;;17.33;9.18;;;10.00;74.70;;;;;;5116078;27;20131;-71
2024/01/31 10:55:24;;;;;;;18.65;10.30;;;10.00;74.80;;;;;;5107880;28;20358;-72
2024/01/31 10:57:49;;;;;;;20.17;10.48;;;10.00;74.90;;;;;;5099967;28;20045;-72
2024/01/31 11:00:28;;;;;;;20.20;10.98;;;10.00;75.00;;;;;;5100655;28;20028;-73
2024/01/31 11:03:00;;;;;;;18.55;10.57;;;10.00;75.00;;;;;;5094503;28;20032;-73
2024/01/31 11:05:27;;;;;;;22.48;11.70;;;10.00;75.10;;;;;;5092123;28;20357;-72
2024/01/31 11:07:53;;;;;;;23.00;12.07;;;10.00;75.20;;;;;;5076744;28;20032;-72
2024/01/31 11:10:22;;;;;;;24.77;13.80;;;10.00;75.20;;;;;;5094276;28;20028;-73
2024/01/31 11:13:04;;;;;;;24.58;14.10;;;10.10;75.30;;;;;;5093414;28;20043;-73
2024/01/31 11:15:36;;;;;;;25.88;13.70;;;10.10;75.30;;;;;;5092248;28;20026;-73
2024/01/31 11:18:13;;;;;;;24.40;13.35;;;10.10;75.40;;;;;;5093378;28;20052;-74
2024/01/31 11:20:52;;;;;;;21.50;12.05;;;10.10;75.40;;;;;;5094856;28;20036;-73
2024/01/31 11:23:22;;;;;;;24.33;13.80;;;10.10;75.50;;;;;;5094678;28;20039;-74
2024/01/31 11:25:48;;;;;;;27.00;14.70;;;10.10;75.60;;;;;;5092482;28;20493;-73
2024/01/31 11:28:15;;;;;;;28.02;16.08;;;10.10;75.70;;;;;;5093363;28;20032;-73
2024/01/31 11:30:42;;;;;;;24.27;13.38;;;10.10;75.70;;;;;;5094723;28;20423;-73
2024/01/31 11:33:11;;;;;;;25.45;13.82;;;10.10;75.80;;;;;;5093094;28;20016;-72
2024/01/31 11:35:37;;;;;;;24.83;14.43;;;10.20;75.80;;;;;;5091024;28;20107;-73
2024/01/31 11:38:06;;;;;;;24.77;14.30;;;10.20;75.70;;;;;;5093870;28;20051;-73
2024/01/31 11:40:32;;;;;;;23.95;14.23;;;10.20;75.70;;;;;;5095074;28;20401;-73
2024/01/31 11:42:57;;;;;;;24.27;13.82;;;10.10;75.70;;;;;;5094035;28;20066;-72
2024/01/31 11:45:27;;;;;;;28.60;13.65;;;10.20;75.80;;;;;;5104816;27;20036;-73
2024/01/31 11:47:57;;;;;;;23.27;13.95;;;10.20;75.80;;;;;;5094066;28;20031;-73
2024/01/31 11:50:25;;;;;;;23.60;12.27;;;10.20;75.70;;;;;;5093862;28;20046;-73
2024/01/31 11:52:51;;;;;;;25.92;13.85;;;10.30;75.70;;;;;;5094048;28;20040;-74
2024/01/31 11:55:25;;;;;;;22.23;12.50;;;10.30;75.70;;;;;;5092754;28;20028;-74
2024/01/31 11:57:51;;;;;;;22.98;13.00;;;10.30;75.60;;;;;;5092459;28;20051;-73
2024/01/31 12:00:18;;;;;;;23.70;13.85;;;10.30;75.70;;;;;;5093297;28;20020;-74
2024/01/31 12:02:47;;;;;;;25.65;13.43;;;10.30;75.60;;;;;;5092103;28;20040;-73
2024/01/31 12:05:13;;;;;;;24.80;13.98;;;10.30;75.60;;;;;;5093484;28;20035;-73
2024/01/31 12:07:39;;;;;;;20.92;12.80;;;10.30;75.60;;;;;;5076724;28;20039;-73
2024/01/31 12:10:09;;;;;;;24.98;12.68;;;10.20;75.50;;;;;;5094321;28;20063;-73
2024/01/31 12:12:42;;;;;;;23.50;14.02;;;10.30;75.50;;;;;;5093612;28;20020;-73
2024/01/31 12:15:15;;;;;;;24.15;13.70;;;10.30;75.40;;;;;;5093825;28;20066;-73
2024/01/31 12:17:42;;;;;;;23.90;13.60;;;10.30;75.30;;;;;;5095415;28;20020;-73
2024/01/31 12:20:10;;;;;;;23.25;12.63;;;10.30;75.30;;;;;;5094457;28;20125;-73
2024/01/31 12:22:37;;;;;;;21.35;12.20;;;10.30;75.20;;;;;;5093499;28;20028;-73
2024/01/31 12:25:04;;;;;;;20.15;10.82;;;10.30;75.00;;;;;;5110833;28;20015;-73
2024/01/31 12:27:30;;;;;;;19.17;10.82;;;10.30;74.90;;;;;;5093908;28;20024;-73
2024/01/31 12:29:57;;;;;;;19.08;11.48;;;10.30;74.70;;;;;;5080237;28;20100;-73
2024/01/31 12:32:23;;;;;;;17.65;10.30;;;10.30;74.50;;;;;;5094558;28;20097;-73
2024/01/31 12:34:49;;;;;;;18.27;10.63;;;10.40;74.20;;;;;;5094340;28;20036;-73
2024/01/31 12:37:15;;;;;;;18.60;11.13;;;10.40;74.00;;;;;;5093776;28;20035;-73
2024/01/31 12:39:42;;;;;;;16.42;10.23;;;10.40;73.70;;;;;;5094884;28;20445;-73
2024/01/31 12:42:08;;;;;;;14.93;10.68;;;10.30;73.40;;;;;;5110415;28;20028;-73
2024/01/31 12:44:34;;;;;;;15.32;10.40;;;10.30;73.00;;;;;;5095533;28;20051;-73
2024/01/31 12:47:05;;;;;;;15.13;9.48;;;10.30;72.70;;;;;;5098368;28;20024;-73